Time;durP1;ratioP1;P1;durP2;ratioP2;P2;SDS_P1;SDS_P2;PMS_P1;PMS_P2;Temp;Humidity;BMP_temperature;BMP_pressure;BME280_temperature;BME280_humidity;BME280_pressure;Samples;Min_cycle;Max_cycle;Signal;HPM_P1;HPM_P2
2021/12/25 00:01:41;;;;;;;8.90;6.03;;;8.90;99.90;;;;;;5013114;28;20471;-83
2021/12/25 00:04:08;;;;;;;8.87;5.07;;;8.90;99.90;;;;;;5013175;28;20215;-82
2021/12/25 00:06:35;;;;;;;8.50;5.90;;;8.90;99.90;;;;;;5014470;28;20938;-83
2021/12/25 00:09:01;;;;;;;8.70;6.37;;;8.90;99.90;;;;;;5014515;28;20412;-83
2021/12/25 00:11:27;;;;;;;8.37;6.27;;;8.90;99.90;;;;;;5014603;28;20458;-82
2021/12/25 00:13:53;;;;;;;8.80;6.00;;;8.80;99.90;;;;;;5014296;28;20438;-82
2021/12/25 00:16:18;;;;;;;13.07;5.83;;;8.80;99.90;;;;;;5013079;28;20727;-82
2021/12/25 00:18:44;;;;;;;7.93;5.47;;;8.80;99.90;;;;;;5012793;28;20189;-82
2021/12/25 00:21:10;;;;;;;11.23;7.83;;;8.80;99.90;;;;;;5014210;28;20205;-83
2021/12/25 00:23:37;;;;;;;8.77;6.00;;;8.80;99.90;;;;;;5012296;28;20201;-82
2021/12/25 00:26:10;;;;;;;7.83;5.90;;;8.80;99.90;;;;;;5012645;28;20484;-83
2021/12/25 00:29:04;;;;;;;8.47;5.50;;;8.80;99.90;;;;;;5014200;28;20419;-83
2021/12/25 00:31:30;;;;;;;8.27;5.80;;;8.80;99.90;;;;;;5013356;28;20435;-83
2021/12/25 00:34:01;;;;;;;10.43;6.13;;;8.80;99.90;;;;;;5014027;28;20501;-83
2021/12/25 00:36:27;;;;;;;7.20;4.87;;;8.80;99.90;;;;;;5013675;28;20454;-82
2021/12/25 00:38:54;;;;;;;6.60;5.13;;;8.70;99.90;;;;;;5014159;28;21012;-83
2021/12/25 00:41:22;;;;;;;6.80;5.03;;;8.70;99.90;;;;;;5013677;28;20204;-82
2021/12/25 00:43:49;;;;;;;6.73;4.63;;;8.70;99.90;;;;;;5012472;28;20448;-83
2021/12/25 00:46:14;;;;;;;6.50;5.17;;;8.70;99.90;;;;;;5013147;28;20946;-83
2021/12/25 00:48:40;;;;;;;10.80;4.57;;;8.70;99.90;;;;;;4994155;28;20421;-83
2021/12/25 00:51:06;;;;;;;7.23;5.50;;;8.70;99.90;;;;;;4993912;28;20272;-82
2021/12/25 00:53:32;;;;;;;7.30;5.20;;;8.70;99.90;;;;;;4976774;28;20449;-82
2021/12/25 00:55:57;;;;;;;6.60;5.10;;;8.70;99.90;;;;;;4976727;28;20520;-83
2021/12/25 00:58:23;;;;;;;7.40;5.00;;;8.70;99.90;;;;;;4993668;28;20193;-83
2021/12/25 01:00:49;;;;;;;6.73;4.40;;;8.70;99.90;;;;;;4978080;28;20209;-83
2021/12/25 01:03:15;;;;;;;6.17;4.70;;;8.70;99.90;;;;;;4977386;28;20511;-82
2021/12/25 01:05:41;;;;;;;7.30;4.70;;;8.70;99.90;;;;;;4977676;28;20524;-83
2021/12/25 01:08:07;;;;;;;7.67;5.23;;;8.70;99.90;;;;;;4976685;28;20515;-82
2021/12/25 01:10:34;;;;;;;6.00;4.90;;;8.70;99.90;;;;;;4994781;28;20256;-82
2021/12/25 01:15:42;;;;;;;8.60;5.13;;;8.60;99.90;;;;;;4995027;28;20453;-83
2021/12/25 01:18:40;;;;;;;7.30;5.10;;;8.60;99.90;;;;;;4976697;28;20471;-82
2021/12/25 01:24:08;;;;;;;6.90;5.07;;;8.60;99.90;;;;;;4994142;28;20440;-83
2021/12/25 01:29:23;;;;;;;6.43;4.73;;;8.60;99.90;;;;;;4994179;28;20540;-82
2021/12/25 01:48:03;;;;;;;6.57;5.20;;;8.50;99.90;;;;;;4993888;28;20927;-82
2021/12/25 01:50:29;;;;;;;8.60;4.67;;;8.50;99.90;;;;;;4993701;28;20570;-82
2021/12/25 01:52:56;;;;;;;7.03;4.70;;;8.40;99.90;;;;;;4993440;28;20445;-82
2021/12/25 01:55:25;;;;;;;8.33;3.97;;;8.40;99.90;;;;;;4975912;28;20801;-83
2021/12/25 01:57:52;;;;;;;4.90;3.63;;;8.50;99.90;;;;;;4975949;28;20955;-82
2021/12/25 02:00:32;;;;;;;6.30;4.70;;;8.50;99.90;;;;;;4993409;28;20824;-83
2021/12/25 02:02:59;;;;;;;5.67;4.43;;;8.40;99.90;;;;;;4975622;28;20500;-82
2021/12/25 02:05:25;;;;;;;6.97;4.37;;;8.50;99.90;;;;;;4975388;28;20432;-82
2021/12/25 02:07:50;;;;;;;6.60;4.90;;;8.40;99.90;;;;;;4974937;28;20422;-82
2021/12/25 02:10:17;;;;;;;7.80;5.20;;;8.40;99.90;;;;;;4992530;28;20189;-83
2021/12/25 02:12:44;;;;;;;6.10;5.10;;;8.40;99.90;;;;;;4992053;28;20742;-83
2021/12/25 02:15:15;;;;;;;9.80;5.20;;;8.40;99.90;;;;;;4992420;28;20413;-83
2021/12/25 02:20:30;;;;;;;6.40;4.70;;;8.50;99.90;;;;;;4992304;28;20519;-83
2021/12/25 02:23:02;;;;;;;5.10;3.80;;;8.40;99.90;;;;;;4975192;28;20539;-82
2021/12/25 02:25:30;;;;;;;5.10;3.90;;;8.30;99.90;;;;;;4974726;28;20409;-83
2021/12/25 02:27:56;;;;;;;5.60;3.90;;;8.30;99.90;;;;;;4974688;28;20424;-82
2021/12/25 02:30:22;;;;;;;5.53;3.97;;;8.30;99.90;;;;;;4992280;28;20417;-83
2021/12/25 02:32:47;;;;;;;6.23;4.10;;;8.30;99.90;;;;;;4992259;28;20628;-83
2021/12/25 02:35:15;;;;;;;5.40;3.57;;;8.30;99.90;;;;;;4974491;28;20453;-83
2021/12/25 02:37:44;;;;;;;6.67;3.90;;;8.30;99.90;;;;;;4975127;28;20283;-82
2021/12/25 02:40:11;;;;;;;5.80;3.43;;;8.30;99.90;;;;;;5003596;28;20522;-83
2021/12/25 02:42:37;;;;;;;6.37;4.33;;;8.30;99.90;;;;;;5010913;28;20436;-83
2021/12/25 02:45:04;;;;;;;5.77;3.70;;;8.20;99.90;;;;;;5011809;28;20461;-82
2021/12/25 02:47:30;;;;;;;4.80;3.70;;;8.20;99.90;;;;;;5013178;28;20427;-83
2021/12/25 02:49:56;;;;;;;7.30;3.70;;;8.20;99.90;;;;;;5015792;28;20773;-83
2021/12/25 02:52:22;;;;;;;5.40;3.47;;;8.20;99.90;;;;;;5013211;28;20416;-82
2021/12/25 02:54:48;;;;;;;6.30;3.60;;;8.10;99.90;;;;;;5013377;28;20551;-82
2021/12/25 02:57:15;;;;;;;7.20;4.53;;;8.10;99.90;;;;;;5012785;28;20566;-82
2021/12/25 02:59:41;;;;;;;7.57;4.57;;;8.10;99.90;;;;;;5013225;28;20427;-83
2021/12/25 03:02:13;;;;;;;4.53;3.53;;;8.10;99.90;;;;;;5013146;28;20412;-83
2021/12/25 03:04:42;;;;;;;5.80;4.00;;;8.10;99.90;;;;;;4977927;28;1097111;-83
2021/12/25 03:07:08;;;;;;;7.87;4.40;;;8.00;99.90;;;;;;5014152;28;20850;-82
2021/12/25 03:09:35;;;;;;;6.23;4.40;;;8.00;99.90;;;;;;5014488;28;20432;-82
2021/12/25 03:12:02;;;;;;;6.30;4.57;;;8.00;99.90;;;;;;4998341;28;20432;-82
2021/12/25 03:17:28;;;;;;;5.17;3.73;;;7.90;99.90;;;;;;5015777;28;20458;-82
2021/12/25 03:19:55;;;;;;;4.77;3.30;;;7.90;99.90;;;;;;5015788;28;20550;-82
2021/12/25 03:22:21;;;;;;;6.40;3.80;;;7.80;99.90;;;;;;5015876;28;20424;-82
2021/12/25 03:24:47;;;;;;;5.73;4.03;;;7.80;99.90;;;;;;5015715;28;20416;-82
2021/12/25 03:27:13;;;;;;;6.07;4.10;;;7.70;99.90;;;;;;5014194;28;20430;-82
2021/12/25 03:29:41;;;;;;;5.77;4.50;;;7.70;99.90;;;;;;5014121;28;20194;-82
2021/12/25 03:32:07;;;;;;;6.23;3.60;;;7.60;99.90;;;;;;5013916;28;20511;-82
2021/12/25 03:34:33;;;;;;;6.47;4.30;;;7.60;99.90;;;;;;4997831;28;20447;-81
2021/12/25 03:36:59;;;;;;;6.70;4.93;;;7.50;99.90;;;;;;5014875;28;20412;-82
2021/12/25 03:39:24;;;;;;;6.40;4.60;;;7.50;99.90;;;;;;5013890;28;20192;-81
2021/12/25 03:41:50;;;;;;;7.50;5.03;;;7.50;99.90;;;;;;4997339;28;20440;-82
2021/12/25 03:44:16;;;;;;;7.60;5.23;;;7.50;99.90;;;;;;5013813;28;20203;-81
2021/12/25 03:46:42;;;;;;;8.20;5.60;;;7.40;99.90;;;;;;5013452;28;20343;-81
2021/12/25 03:49:14;;;;;;;8.27;4.37;;;7.40;99.90;;;;;;5013634;28;20185;-82
2021/12/25 04:00:00;;;;;;;7.93;4.83;;;7.20;99.90;;;;;;5013672;28;20498;-82
2021/12/25 04:02:33;;;;;;;7.50;4.37;;;7.20;99.90;;;;;;5014257;28;20432;-82
2021/12/25 04:05:01;;;;;;;7.23;4.23;;;7.10;99.90;;;;;;5025096;23;20506;-80
2021/12/25 04:10:11;;;;;;;7.63;5.13;;;6.90;99.90;;;;;;5034675;28;20503;-82
2021/12/25 04:12:37;;;;;;;7.13;4.37;;;6.90;99.90;;;;;;5016558;28;20443;-82
2021/12/25 04:15:03;;;;;;;7.40;5.20;;;6.90;99.90;;;;;;5016705;28;20262;-82
2021/12/25 04:17:29;;;;;;;8.47;4.80;;;6.90;99.90;;;;;;5016198;28;20180;-82
2021/12/25 04:19:54;;;;;;;8.00;5.30;;;6.90;99.90;;;;;;5016444;28;21105;-82
2021/12/25 04:22:28;;;;;;;7.80;4.93;;;6.80;99.90;;;;;;5034380;28;20195;-81
2021/12/25 04:24:53;;;;;;;7.63;5.20;;;6.80;99.90;;;;;;5016257;28;20219;-82
2021/12/25 04:27:20;;;;;;;9.57;5.93;;;6.80;99.90;;;;;;5015980;28;20423;-82
2021/12/25 04:29:51;;;;;;;8.00;4.93;;;6.70;99.90;;;;;;5033926;28;20172;-81
2021/12/25 05:02:55;;;;;;;12.07;7.00;;;6.50;99.90;;;;;;5033136;28;20760;-82
2021/12/25 05:05:22;;;;;;;10.60;6.90;;;6.50;99.90;;;;;;5015080;28;20982;-81
2021/12/25 05:07:47;;;;;;;10.47;7.33;;;6.50;99.90;;;;;;5032811;28;20413;-82
2021/12/25 05:10:13;;;;;;;13.13;7.50;;;6.30;99.90;;;;;;5015129;28;20419;-82
2021/12/25 05:12:38;;;;;;;11.40;7.33;;;6.40;99.90;;;;;;5032798;28;20555;-82
2021/12/25 05:15:05;;;;;;;13.00;8.60;;;6.40;99.90;;;;;;5033473;28;20819;-82
2021/12/25 05:17:30;;;;;;;12.50;7.13;;;6.30;99.90;;;;;;5015674;28;20712;-81
2021/12/25 05:19:57;;;;;;;13.47;7.30;;;6.30;99.90;;;;;;5033720;28;20455;-83
2021/12/25 05:22:27;;;;;;;13.97;7.77;;;6.40;99.90;;;;;;5016155;28;20199;-81
2021/12/25 05:24:53;;;;;;;12.60;8.23;;;6.30;99.90;;;;;;5015681;28;20434;-82
2021/12/25 05:27:22;;;;;;;11.90;7.47;;;6.30;99.90;;;;;;5033647;28;20419;-81
2021/12/25 05:29:48;;;;;;;14.10;6.93;;;6.30;99.90;;;;;;5015988;28;20510;-82
2021/12/25 05:32:16;;;;;;;14.57;8.90;;;6.20;99.90;;;;;;5033687;28;20441;-82
2021/12/25 05:34:41;;;;;;;11.40;7.37;;;6.20;99.90;;;;;;5033274;28;20192;-81
2021/12/25 05:37:08;;;;;;;12.60;8.47;;;6.10;99.90;;;;;;5015467;28;20422;-81
2021/12/25 05:39:33;;;;;;;14.90;9.27;;;6.10;99.90;;;;;;5015705;28;20179;-81
2021/12/25 05:41:59;;;;;;;14.53;9.40;;;6.10;99.90;;;;;;5033841;28;20456;-82
2021/12/25 05:44:25;;;;;;;16.90;10.17;;;6.20;99.90;;;;;;5015601;28;20446;-82
2021/12/25 05:46:51;;;;;;;15.40;10.60;;;6.20;99.90;;;;;;5033191;28;20584;-82
2021/12/25 05:49:17;;;;;;;16.87;10.90;;;6.20;99.90;;;;;;5015913;28;20179;-82
2021/12/25 05:51:43;;;;;;;16.60;10.60;;;6.10;99.90;;;;;;5033557;28;20419;-82
2021/12/25 05:54:08;;;;;;;17.07;11.40;;;6.00;99.90;;;;;;5015640;28;20505;-82
2021/12/25 05:56:34;;;;;;;18.87;11.80;;;6.00;99.90;;;;;;5031882;28;20735;-82
2021/12/25 05:59:00;;;;;;;18.77;11.23;;;5.90;99.90;;;;;;5031925;28;20246;-81
2021/12/25 06:01:26;;;;;;;17.83;11.23;;;5.90;99.90;;;;;;5033486;28;20326;-82
2021/12/25 06:03:52;;;;;;;17.47;12.27;;;5.80;99.90;;;;;;5032639;28;20223;-81
2021/12/25 06:06:17;;;;;;;17.27;11.77;;;5.80;99.90;;;;;;5015551;28;20456;-82
2021/12/25 06:08:43;;;;;;;18.23;10.90;;;5.80;99.90;;;;;;5031783;28;20551;-83
2021/12/25 06:11:08;;;;;;;19.20;12.30;;;5.80;99.90;;;;;;5039617;28;20180;-83
2021/12/25 06:13:44;;;;;;;17.60;12.00;;;5.80;99.90;;;;;;5022680;28;20183;-82
2021/12/25 06:16:10;;;;;;;17.20;10.33;;;5.80;99.90;;;;;;5022175;28;20203;-83
2021/12/25 06:18:36;;;;;;;18.40;11.17;;;5.70;99.90;;;;;;5021884;28;20956;-84
2021/12/25 06:21:01;;;;;;;14.60;10.20;;;5.80;99.90;;;;;;5039384;28;20209;-83
2021/12/25 06:23:29;;;;;;;16.17;10.87;;;5.70;99.90;;;;;;5025682;28;20286;-83
2021/12/25 06:25:55;;;;;;;14.00;9.43;;;5.70;99.90;;;;;;5042491;28;20206;-84
2021/12/25 06:28:21;;;;;;;13.57;9.27;;;5.60;99.90;;;;;;5043615;28;20939;-82
2021/12/25 06:30:49;;;;;;;14.87;9.10;;;5.50;99.90;;;;;;5025959;28;20187;-84
2021/12/25 06:33:15;;;;;;;14.60;8.90;;;5.40;99.90;;;;;;5025078;28;20191;-82
2021/12/25 06:35:41;;;;;;;14.20;9.40;;;5.40;99.90;;;;;;5025189;28;20445;-84
2021/12/25 06:38:06;;;;;;;13.17;8.47;;;5.40;99.90;;;;;;5042945;28;20186;-83
2021/12/25 06:40:32;;;;;;;12.70;9.10;;;5.40;99.90;;;;;;5042840;28;20464;-84
2021/12/25 06:42:58;;;;;;;13.30;8.60;;;5.40;99.90;;;;;;5042445;28;20191;-84
2021/12/25 06:45:24;;;;;;;12.63;8.63;;;5.40;99.90;;;;;;5024524;28;20206;-83
2021/12/25 06:47:49;;;;;;;12.33;8.70;;;5.40;99.90;;;;;;5024219;28;20422;-84
2021/12/25 06:50:15;;;;;;;12.87;8.20;;;5.40;99.90;;;;;;5042464;28;20180;-82
2021/12/25 06:52:45;;;;;;;12.97;8.33;;;5.30;99.90;;;;;;5024310;28;20187;-83
2021/12/25 06:55:11;;;;;;;13.90;8.67;;;5.30;99.90;;;;;;5041710;28;20199;-82
2021/12/25 06:57:43;;;;;;;10.03;7.40;;;5.20;99.90;;;;;;5023220;28;20431;-83
2021/12/25 07:00:10;;;;;;;12.50;8.30;;;5.20;99.90;;;;;;5041607;28;20460;-84
2021/12/25 07:02:36;;;;;;;12.60;8.33;;;5.20;99.90;;;;;;5023067;28;20420;-83
2021/12/25 07:05:01;;;;;;;14.63;8.70;;;5.20;99.90;;;;;;5023158;28;20839;-83
2021/12/25 07:07:27;;;;;;;12.87;9.10;;;5.10;99.90;;;;;;5040639;28;20554;-83
2021/12/25 07:09:52;;;;;;;14.40;8.50;;;5.10;99.90;;;;;;5040623;28;20178;-84
2021/12/25 07:12:19;;;;;;;11.97;8.27;;;5.20;99.90;;;;;;5022460;28;20250;-83
2021/12/25 07:14:45;;;;;;;14.10;8.63;;;5.20;99.90;;;;;;5022879;28;20206;-82
2021/12/25 07:17:10;;;;;;;11.40;7.80;;;5.20;99.90;;;;;;5041016;28;20416;-82
2021/12/25 07:19:36;;;;;;;11.37;8.20;;;5.20;99.90;;;;;;5021977;28;20182;-82
2021/12/25 07:22:03;;;;;;;12.17;7.27;;;5.20;99.90;;;;;;5040770;28;20182;-83
2021/12/25 07:24:28;;;;;;;11.80;7.77;;;5.20;99.90;;;;;;5022526;28;20199;-82
2021/12/25 07:26:54;;;;;;;11.60;8.20;;;5.20;99.90;;;;;;5022051;28;20464;-83
2021/12/25 07:29:19;;;;;;;10.97;6.90;;;5.20;99.90;;;;;;5022194;28;20180;-84
2021/12/25 07:31:45;;;;;;;11.63;8.00;;;5.20;99.90;;;;;;5022107;28;20217;-83
2021/12/25 07:34:11;;;;;;;10.50;7.70;;;5.20;99.90;;;;;;5020888;28;20273;-84
2021/12/25 07:36:37;;;;;;;13.50;8.10;;;5.20;99.90;;;;;;5039123;28;20192;-82
2021/12/25 07:39:03;;;;;;;9.23;5.73;;;5.20;99.90;;;;;;5021346;28;20190;-82
2021/12/25 07:41:28;;;;;;;10.13;7.13;;;5.20;99.90;;;;;;5021020;28;20214;-83
2021/12/25 07:43:54;;;;;;;12.30;7.40;;;5.10;99.90;;;;;;5021447;28;20432;-84
2021/12/25 07:46:22;;;;;;;10.27;7.37;;;5.10;99.90;;;;;;5020924;28;20291;-81
2021/12/25 07:48:47;;;;;;;11.93;7.20;;;4.90;99.90;;;;;;5039084;28;20177;-84
2021/12/25 07:51:13;;;;;;;10.47;6.53;;;5.00;99.90;;;;;;5038607;28;20427;-83
2021/12/25 07:53:41;;;;;;;9.83;6.47;;;5.10;99.90;;;;;;5039123;28;20633;-82
2021/12/25 07:56:06;;;;;;;7.80;4.67;;;5.10;99.90;;;;;;5038562;28;20201;-83
2021/12/25 07:58:32;;;;;;;9.70;6.40;;;5.10;99.90;;;;;;5038443;28;20424;-82
2021/12/25 08:00:58;;;;;;;8.97;6.33;;;5.10;99.90;;;;;;5038386;28;20620;-84
2021/12/25 08:03:23;;;;;;;8.60;5.43;;;5.10;99.90;;;;;;5020262;28;20182;-82
2021/12/25 08:05:49;;;;;;;7.33;5.30;;;5.10;99.90;;;;;;5019714;28;20271;-84
2021/12/25 08:08:15;;;;;;;9.33;6.47;;;5.10;99.90;;;;;;5019208;28;20640;-82
2021/12/25 08:10:42;;;;;;;7.73;4.93;;;5.10;99.90;;;;;;5020173;28;20943;-83
2021/12/25 08:13:08;;;;;;;7.33;5.40;;;5.10;99.90;;;;;;5037538;28;20186;-82
2021/12/25 08:15:35;;;;;;;10.20;5.83;;;5.10;99.90;;;;;;5019511;28;20506;-83
2021/12/25 08:18:00;;;;;;;7.57;5.33;;;5.10;99.90;;;;;;5019118;28;20460;-82
2021/12/25 08:20:28;;;;;;;6.53;5.17;;;5.10;99.90;;;;;;5037215;28;20822;-84
2021/12/25 08:22:55;;;;;;;9.63;5.53;;;5.10;99.90;;;;;;5018992;28;20200;-82
2021/12/25 08:25:22;;;;;;;7.67;5.70;;;5.10;99.90;;;;;;5018853;28;20532;-83
2021/12/25 08:27:47;;;;;;;7.47;5.57;;;5.10;99.90;;;;;;5036617;28;20414;-84
2021/12/25 08:30:16;;;;;;;8.43;6.20;;;5.10;99.90;;;;;;5018268;28;20427;-83
2021/12/25 08:32:43;;;;;;;9.10;5.83;;;5.10;99.90;;;;;;5016830;28;20219;-82
2021/12/25 08:35:12;;;;;;;9.47;5.67;;;5.10;99.90;;;;;;5016951;28;20885;-82
2021/12/25 08:37:38;;;;;;;8.00;5.80;;;5.10;99.90;;;;;;5034896;28;20505;-83
2021/12/25 08:40:05;;;;;;;8.80;5.83;;;5.10;99.90;;;;;;5016784;28;20473;-83
2021/12/25 08:42:31;;;;;;;9.77;5.93;;;5.10;99.90;;;;;;5017155;28;20183;-82
2021/12/25 08:47:33;;;;;;;9.10;5.17;;;5.20;99.90;;;;;;5034374;28;20202;-81
2021/12/25 08:49:59;;;;;;;9.10;5.67;;;5.10;99.90;;;;;;5016825;28;20430;-82
2021/12/25 08:52:26;;;;;;;7.93;5.57;;;5.10;99.90;;;;;;5016891;28;20437;-82
2021/12/25 08:54:52;;;;;;;8.77;5.90;;;5.10;99.90;;;;;;5034397;28;20541;-83
2021/12/25 08:57:20;;;;;;;7.33;5.43;;;5.10;99.90;;;;;;5016010;28;20775;-83
2021/12/25 08:59:46;;;;;;;9.50;5.80;;;5.20;99.90;;;;;;5016396;28;20425;-83
2021/12/25 09:02:15;;;;;;;9.50;5.93;;;5.20;99.90;;;;;;5034406;28;20434;-83
2021/12/25 09:04:42;;;;;;;8.47;5.50;;;5.20;99.90;;;;;;5016482;28;20492;-82
2021/12/25 09:07:08;;;;;;;8.33;5.60;;;5.20;99.90;;;;;;5015855;28;20459;-83
2021/12/25 09:09:34;;;;;;;6.93;5.50;;;5.30;99.90;;;;;;5033762;28;20434;-82
2021/12/25 09:12:00;;;;;;;9.60;5.90;;;5.20;99.90;;;;;;5015795;28;20197;-82
2021/12/25 09:14:26;;;;;;;8.77;6.03;;;5.20;99.90;;;;;;5033864;28;20441;-83
2021/12/25 09:16:52;;;;;;;9.80;6.43;;;5.10;99.90;;;;;;5033213;28;20266;-82
2021/12/25 09:19:18;;;;;;;9.80;5.80;;;5.10;99.90;;;;;;5015677;28;20189;-83
2021/12/25 09:21:44;;;;;;;9.10;5.80;;;5.20;99.90;;;;;;5015899;28;20888;-83
2021/12/25 09:24:09;;;;;;;9.63;6.00;;;5.20;99.90;;;;;;5015564;28;20193;-83
2021/12/25 09:26:35;;;;;;;7.47;5.60;;;5.20;99.90;;;;;;5033114;28;20191;-83
2021/12/25 09:29:01;;;;;;;7.20;5.40;;;5.10;99.90;;;;;;5015650;28;20567;-83
2021/12/25 09:31:26;;;;;;;8.17;5.87;;;5.00;99.90;;;;;;5015520;28;20533;-82
2021/12/25 09:33:53;;;;;;;7.60;4.73;;;5.00;99.90;;;;;;5033432;28;20177;-83
2021/12/25 09:36:20;;;;;;;9.13;5.87;;;5.10;99.90;;;;;;5015373;28;20205;-81
2021/12/25 09:38:46;;;;;;;9.00;6.20;;;5.20;99.90;;;;;;5032701;28;20558;-83
2021/12/25 09:41:12;;;;;;;8.10;5.97;;;5.30;99.90;;;;;;5032769;28;20463;-81
2021/12/25 09:43:39;;;;;;;9.13;5.50;;;5.20;99.90;;;;;;5015375;28;20774;-81
2021/12/25 09:46:06;;;;;;;8.23;5.50;;;5.30;99.90;;;;;;5014730;28;20448;-82
2021/12/25 09:48:33;;;;;;;7.40;5.57;;;5.20;99.90;;;;;;5014808;28;20512;-82
2021/12/25 09:50:59;;;;;;;8.73;5.63;;;5.20;99.90;;;;;;5015019;28;20504;-83
2021/12/25 09:53:26;;;;;;;7.10;5.60;;;5.40;99.90;;;;;;5014907;28;20588;-82
2021/12/25 09:55:53;;;;;;;8.60;5.87;;;5.50;99.90;;;;;;5032287;28;20448;-83
2021/12/25 09:58:19;;;;;;;7.80;5.03;;;5.60;99.90;;;;;;5014841;28;20803;-83
2021/12/25 10:00:47;;;;;;;10.57;6.63;;;5.50;99.90;;;;;;5032164;28;20474;-82
2021/12/25 10:03:13;;;;;;;6.53;4.70;;;5.60;99.90;;;;;;5014616;28;20905;-83
2021/12/25 10:05:43;;;;;;;7.67;5.50;;;5.70;99.90;;;;;;5052190;23;20575;-79
2021/12/25 10:08:18;;;;;;;7.90;5.10;;;5.70;99.90;;;;;;5018294;28;20418;-79
2021/12/25 10:11:02;;;;;;;8.60;5.20;;;5.70;99.90;;;;;;5016493;28;20500;-79
2021/12/25 10:13:32;;;;;;;6.80;4.70;;;5.80;99.90;;;;;;5032864;28;20492;-79
2021/12/25 10:16:18;;;;;;;7.83;4.67;;;5.80;99.90;;;;;;5016994;28;20418;-80
2021/12/25 10:18:44;;;;;;;7.10;4.57;;;5.80;99.90;;;;;;5032443;28;20489;-80
2021/12/25 10:21:23;;;;;;;6.70;4.60;;;5.90;99.90;;;;;;5033581;28;20470;-78
2021/12/25 10:24:04;;;;;;;7.43;5.13;;;5.80;99.90;;;;;;5031137;28;20421;-79
2021/12/25 10:26:30;;;;;;;8.40;5.67;;;5.90;99.90;;;;;;5025197;28;20856;-78
2021/12/25 10:28:55;;;;;;;8.40;5.73;;;5.90;99.90;;;;;;5018555;28;20442;-79
2021/12/25 10:31:33;;;;;;;9.10;5.80;;;5.90;99.90;;;;;;5026894;28;20509;-78
2021/12/25 10:33:59;;;;;;;8.03;5.90;;;6.00;99.90;;;;;;5017776;28;20274;-79
2021/12/25 10:36:34;;;;;;;10.37;7.43;;;5.90;99.90;;;;;;5037240;28;20458;-80
2021/12/25 10:39:13;;;;;;;9.70;6.00;;;5.90;99.90;;;;;;5017035;28;20182;-79
2021/12/25 10:41:52;;;;;;;7.70;5.40;;;6.00;99.90;;;;;;5001118;28;20477;-80
2021/12/25 10:44:20;;;;;;;8.50;6.23;;;6.00;99.90;;;;;;5000041;28;20519;-79
2021/12/25 10:47:00;;;;;;;6.57;4.70;;;6.10;99.90;;;;;;5007025;28;20419;-79
2021/12/25 10:49:29;;;;;;;7.37;5.43;;;6.10;99.90;;;;;;5038192;28;20417;-79
2021/12/25 10:52:08;;;;;;;7.77;5.43;;;6.20;99.90;;;;;;5020904;28;20445;-79
2021/12/25 10:54:49;;;;;;;6.90;5.97;;;6.30;99.90;;;;;;5020960;28;20792;-79
2021/12/25 10:57:36;;;;;;;8.10;5.33;;;6.40;99.90;;;;;;5024794;28;20414;-79
2021/12/25 11:00:24;;;;;;;8.17;6.47;;;6.50;99.90;;;;;;5019865;28;20996;-79
2021/12/25 11:02:59;;;;;;;8.63;6.00;;;6.50;99.90;;;;;;5013351;28;20987;-80
2021/12/25 11:05:27;;;;;;;8.63;6.20;;;6.50;99.90;;;;;;5012440;28;20525;-79
2021/12/25 11:08:08;;;;;;;17.17;10.07;;;6.60;99.90;;;;;;5014564;28;20421;-79
2021/12/25 11:10:47;;;;;;;7.23;5.77;;;6.70;99.90;;;;;;5002774;28;20434;-79
2021/12/25 11:13:35;;;;;;;6.90;5.13;;;6.80;99.90;;;;;;4997912;28;20418;-78
2021/12/25 11:16:27;;;;;;;7.43;5.30;;;6.70;99.90;;;;;;4997504;28;20477;-79
2021/12/25 11:19:01;;;;;;;6.23;4.73;;;6.60;99.90;;;;;;4997535;28;20525;-78
2021/12/25 11:21:36;;;;;;;7.00;4.90;;;6.50;99.90;;;;;;4997934;28;20482;-77
2021/12/25 11:24:14;;;;;;;9.40;5.30;;;6.50;99.90;;;;;;4997831;28;20837;-78
2021/12/25 11:26:42;;;;;;;7.03;5.00;;;6.30;99.90;;;;;;4998305;28;20954;-77
2021/12/25 11:29:11;;;;;;;7.93;5.50;;;6.30;99.90;;;;;;4998848;28;20458;-78
2021/12/25 11:31:37;;;;;;;6.60;5.10;;;6.40;99.90;;;;;;4998240;28;21250;-77
2021/12/25 11:34:04;;;;;;;7.90;5.00;;;6.40;99.90;;;;;;4997794;28;20455;-78
2021/12/25 11:36:31;;;;;;;6.70;5.40;;;6.40;99.90;;;;;;4997753;28;20420;-77
2021/12/25 11:38:57;;;;;;;7.83;5.60;;;6.40;99.90;;;;;;4997085;28;20476;-77
2021/12/25 11:41:30;;;;;;;7.13;5.10;;;6.30;99.90;;;;;;4997629;28;20470;-77
2021/12/25 11:43:57;;;;;;;8.50;5.67;;;6.40;99.90;;;;;;4997468;28;20422;-78
2021/12/25 11:46:40;;;;;;;6.60;5.53;;;6.30;99.90;;;;;;4997734;28;20948;-78
2021/12/25 11:49:10;;;;;;;9.40;6.10;;;6.30;99.90;;;;;;4998646;28;20926;-79
2021/12/25 11:51:39;;;;;;;9.77;6.00;;;6.30;99.90;;;;;;4998602;28;20457;-78
2021/12/25 11:54:43;;;;;;;9.37;5.97;;;6.30;99.90;;;;;;4998907;28;20431;-79
2021/12/25 11:59:47;;;;;;;9.37;7.00;;;6.40;99.90;;;;;;5016943;28;20558;-78
2021/12/25 12:02:36;;;;;;;7.70;5.60;;;6.40;99.90;;;;;;5012045;28;20536;-79
2021/12/25 12:05:21;;;;;;;9.03;6.33;;;6.40;99.90;;;;;;5017932;28;20434;-78
2021/12/25 12:08:09;;;;;;;7.13;5.90;;;6.40;99.90;;;;;;5019181;28;20458;-78
2021/12/25 12:11:00;;;;;;;8.63;7.07;;;6.30;99.90;;;;;;5018576;28;20497;-79
2021/12/25 12:13:31;;;;;;;8.67;5.73;;;6.30;99.90;;;;;;5033553;28;20789;-79
2021/12/25 12:16:03;;;;;;;10.73;7.30;;;6.30;99.90;;;;;;5018120;28;20491;-79
2021/12/25 12:18:33;;;;;;;7.80;6.17;;;6.30;99.90;;;;;;4998673;28;20447;-79
2021/12/25 12:21:12;;;;;;;7.70;5.57;;;6.20;99.90;;;;;;4997274;28;20548;-78
2021/12/25 12:26:11;;;;;;;10.10;6.90;;;6.20;99.90;;;;;;5016402;28;20406;-79
2021/12/25 12:28:52;;;;;;;8.17;6.27;;;6.10;99.90;;;;;;5008393;28;20443;-78
2021/12/25 12:31:45;;;;;;;7.60;5.77;;;6.10;99.90;;;;;;5018111;28;20450;-78
2021/12/25 12:34:29;;;;;;;7.83;5.53;;;6.00;99.90;;;;;;5016602;28;20426;-80
2021/12/25 12:37:13;;;;;;;8.03;6.20;;;5.90;99.90;;;;;;5012826;28;20558;-78
2021/12/25 12:40:04;;;;;;;8.60;6.53;;;5.80;99.90;;;;;;5013454;28;20965;-77
2021/12/25 12:42:43;;;;;;;8.10;5.73;;;5.80;99.90;;;;;;5012112;28;20984;-77
2021/12/25 12:45:14;;;;;;;7.60;5.40;;;5.80;99.90;;;;;;5012865;28;20426;-79
2021/12/25 12:47:41;;;;;;;7.67;5.40;;;5.80;99.90;;;;;;5013885;28;20415;-78
2021/12/25 12:50:09;;;;;;;8.60;5.40;;;5.80;99.90;;;;;;5013288;28;20420;-76
2021/12/25 12:52:41;;;;;;;6.47;5.00;;;5.60;99.90;;;;;;5012982;28;20447;-78
2021/12/25 12:55:29;;;;;;;8.00;5.60;;;5.60;99.90;;;;;;5012931;28;20489;-78
2021/12/25 12:58:18;;;;;;;8.40;5.70;;;5.60;99.90;;;;;;5012655;28;20917;-78
2021/12/25 13:00:53;;;;;;;7.47;5.50;;;5.60;99.90;;;;;;5002574;28;20980;-78
2021/12/25 13:03:20;;;;;;;9.63;6.07;;;5.60;99.90;;;;;;4995641;28;20433;-77
2021/12/25 13:05:53;;;;;;;6.83;5.10;;;5.50;99.90;;;;;;4995650;28;20949;-77
2021/12/25 13:08:20;;;;;;;7.40;4.63;;;5.40;99.90;;;;;;5012882;28;20521;-78
2021/12/25 13:10:52;;;;;;;5.87;4.60;;;5.50;99.90;;;;;;4996235;28;20435;-77
2021/12/25 13:13:30;;;;;;;7.43;5.30;;;5.50;99.90;;;;;;4995925;28;20492;-78
2021/12/25 13:16:05;;;;;;;7.57;5.40;;;5.50;99.90;;;;;;4996123;28;20426;-78
2021/12/25 13:18:34;;;;;;;6.60;4.67;;;5.50;99.90;;;;;;4995967;28;20419;-78
2021/12/25 13:21:02;;;;;;;8.70;5.47;;;5.50;99.90;;;;;;4996339;28;20929;-78
2021/12/25 13:23:34;;;;;;;7.17;5.80;;;5.50;99.90;;;;;;4996109;28;20784;-77
2021/12/25 13:26:06;;;;;;;12.60;8.40;;;5.50;99.90;;;;;;4995829;28;20408;-78
2021/12/25 13:28:39;;;;;;;9.17;6.13;;;5.50;99.90;;;;;;4995613;28;20453;-78
2021/12/25 13:31:12;;;;;;;6.13;4.90;;;5.60;99.90;;;;;;4997946;28;20963;-78
2021/12/25 13:33:48;;;;;;;8.57;6.10;;;5.60;99.90;;;;;;5017884;28;20422;-78
2021/12/25 13:36:21;;;;;;;9.70;6.20;;;5.60;99.90;;;;;;5030035;28;20432;-78
2021/12/25 13:38:54;;;;;;;9.47;4.87;;;5.60;99.90;;;;;;5014072;28;20963;-78
2021/12/25 13:41:44;;;;;;;5.30;3.50;;;5.60;99.90;;;;;;5015275;28;20842;-77
2021/12/25 13:44:22;;;;;;;5.67;2.87;;;5.70;99.90;;;;;;5011671;28;20997;-78
2021/12/25 13:46:52;;;;;;;5.13;2.70;;;5.70;99.90;;;;;;5012522;28;20419;-78
2021/12/25 13:49:33;;;;;;;4.60;2.50;;;5.70;99.90;;;;;;4995110;28;20527;-77
2021/12/25 13:52:06;;;;;;;3.23;2.20;;;5.80;99.90;;;;;;5010711;28;20870;-79
2021/12/25 13:54:34;;;;;;;3.77;1.80;;;5.70;99.90;;;;;;5012760;28;20461;-78
2021/12/25 13:57:00;;;;;;;4.07;2.90;;;5.70;99.90;;;;;;4996067;28;20413;-78
2021/12/25 13:59:27;;;;;;;6.97;3.00;;;5.70;99.90;;;;;;5014539;28;20488;-78
2021/12/25 14:02:00;;;;;;;5.63;3.10;;;5.80;99.90;;;;;;4997677;28;21018;-78
2021/12/25 14:04:27;;;;;;;5.27;3.07;;;5.80;99.90;;;;;;4998060;28;20422;-78
2021/12/25 14:06:52;;;;;;;5.63;3.57;;;5.80;99.90;;;;;;4999636;28;20433;-78
2021/12/25 14:09:18;;;;;;;4.30;2.70;;;5.80;99.90;;;;;;5016380;28;20425;-78
2021/12/25 14:11:53;;;;;;;4.77;2.80;;;5.90;99.90;;;;;;5015995;28;20453;-78
2021/12/25 14:14:20;;;;;;;3.63;2.37;;;5.90;99.90;;;;;;5032235;28;20183;-78
2021/12/25 14:16:47;;;;;;;3.47;2.03;;;5.80;99.90;;;;;;5030869;28;20479;-78
2021/12/25 14:19:13;;;;;;;5.20;3.47;;;5.80;99.90;;;;;;5029109;28;20438;-79
2021/12/25 14:21:40;;;;;;;4.30;2.40;;;5.90;99.90;;;;;;5014626;28;20481;-78
2021/12/25 14:24:15;;;;;;;3.73;2.43;;;5.90;99.90;;;;;;5013831;28;20489;-78